Time;durP1;ratioP1;P1;durP2;ratioP2;P2;SDS_P1;SDS_P2;PMS_P1;PMS_P2;Temp;Humidity;BMP_temperature;BMP_pressure;BME280_temperature;BME280_humidity;BME280_pressure;Samples;Min_cycle;Max_cycle;Signal;HPM_P1;HPM_P2
2022/03/27 00:00:09;;;;;;;10.95;6.10;;;12.50;88.90;;;10.32;95.09;102054.34;5038547;28;20126;-85
2022/03/27 00:02:43;;;;;;;12.10;6.13;;;12.50;89.60;;;10.36;95.30;102055.78;5051239;28;20056;-84
2022/03/27 00:05:12;;;;;;;15.77;6.35;;;12.50;90.00;;;10.36;95.67;102058.50;5031606;28;20049;-85
2022/03/27 00:07:39;;;;;;;11.93;5.57;;;12.60;90.00;;;10.34;96.58;102052.34;5031360;28;20041;-85
2022/03/27 00:10:08;;;;;;;11.95;5.43;;;12.60;90.00;;;10.37;97.18;102054.75;5035669;28;20037;-85
2022/03/27 00:12:36;;;;;;;15.75;6.43;;;12.60;91.00;;;10.45;97.36;102054.91;5042465;28;20468;-85
2022/03/27 00:15:07;;;;;;;11.40;6.18;;;12.60;90.40;;;10.47;96.95;102052.91;5050669;28;20076;-85
2022/03/27 00:17:35;;;;;;;13.20;6.10;;;12.60;91.00;;;10.51;96.78;102059.75;5051203;28;20045;-85
2022/03/27 00:20:08;;;;;;;10.57;5.43;;;12.70;90.70;;;10.45;97.01;102057.63;5045520;28;20080;-85
2022/03/27 00:22:36;;;;;;;9.90;5.40;;;12.70;90.70;;;10.39;96.76;102060.91;5050083;28;20044;-85
2022/03/27 00:25:04;;;;;;;12.30;5.85;;;12.70;90.50;;;10.33;97.95;102062.34;5050633;28;20037;-85
2022/03/27 00:27:32;;;;;;;12.73;6.20;;;12.70;90.60;;;10.37;98.26;102057.47;5046191;28;20041;-85
2022/03/27 00:30:00;;;;;;;11.48;5.82;;;12.60;91.20;;;10.35;98.02;102054.03;5043728;28;20116;-85
2022/03/27 00:32:28;;;;;;;11.25;5.93;;;12.60;91.20;;;10.36;97.69;102053.91;5039140;28;20041;-85
2022/03/27 00:34:55;;;;;;;11.20;6.35;;;12.60;91.10;;;10.40;97.61;102054.47;5052472;28;20072;-84
2022/03/27 00:37:23;;;;;;;11.52;5.60;;;12.60;91.20;;;10.36;98.28;102044.88;5042811;28;20045;-85
2022/03/27 00:39:50;;;;;;;9.93;5.97;;;12.60;90.80;;;10.22;99.24;102042.56;5030024;28;20041;-86
2022/03/27 00:42:21;;;;;;;11.05;6.10;;;12.60;91.10;;;10.27;99.28;102049.28;5046873;28;20076;-85
2022/03/27 00:44:48;;;;;;;15.63;6.07;;;12.60;91.30;;;10.21;99.29;102043.59;5040820;28;20103;-85
2022/03/27 00:47:15;;;;;;;11.73;6.28;;;12.60;91.40;;;10.27;99.24;102048.44;5039783;28;20072;-85
2022/03/27 00:49:44;;;;;;;12.93;6.20;;;12.60;91.50;;;10.26;99.22;102044.00;5050256;28;20033;-85
2022/03/27 00:52:11;;;;;;;11.93;6.60;;;12.60;91.70;;;10.16;99.26;102038.56;5045694;28;20125;-85
2022/03/27 00:54:38;;;;;;;12.18;6.50;;;12.60;91.50;;;10.09;99.54;102045.56;5048695;28;20037;-84
2022/03/27 00:57:06;;;;;;;15.48;5.95;;;12.50;91.40;;;9.97;99.26;102051.16;5049834;28;20120;-85
2022/03/27 00:59:34;;;;;;;15.27;6.10;;;12.50;91.50;;;9.98;100.00;102050.16;5050037;28;20414;-85
2022/03/27 01:02:01;;;;;;;12.68;6.65;;;12.40;91.50;;;9.85;99.70;102051.47;5040030;28;20072;-85
2022/03/27 01:04:29;;;;;;;14.55;6.20;;;12.40;91.80;;;9.81;100.00;102052.75;5040448;28;20042;-85
2022/03/27 01:06:59;;;;;;;10.93;6.45;;;12.40;91.80;;;9.77;100.00;102053.03;5044077;28;20067;-85
2022/03/27 01:09:40;;;;;;;10.80;6.18;;;12.30;92.30;;;9.79;100.00;102053.75;5049668;28;20041;-84
2022/03/27 01:12:16;;;;;;;10.25;5.82;;;12.30;92.30;;;9.72;100.00;102047.13;5039622;28;20051;-85
2022/03/27 01:14:46;;;;;;;13.77;6.88;;;12.20;92.30;;;9.69;100.00;102042.00;5030206;28;20041;-84
2022/03/27 01:17:18;;;;;;;11.82;6.60;;;12.20;92.80;;;9.57;100.00;102046.69;5030317;28;20099;-85
2022/03/27 01:19:49;;;;;;;13.27;6.57;;;12.20;92.60;;;9.53;100.00;102041.69;5036619;28;20065;-85
2022/03/27 01:22:19;;;;;;;12.17;6.70;;;12.10;92.50;;;9.53;100.00;102036.25;5046834;28;20041;-86
2022/03/27 01:24:51;;;;;;;12.55;7.20;;;12.10;92.70;;;9.64;100.00;102038.84;5049996;28;20048;-84
2022/03/27 01:27:18;;;;;;;12.15;6.78;;;12.10;93.30;;;9.58;100.00;102031.25;5048973;28;20049;-84
2022/03/27 01:29:46;;;;;;;12.07;7.45;;;12.10;93.20;;;9.55;100.00;102023.38;5049154;28;20060;-85
2022/03/27 01:32:14;;;;;;;14.05;7.85;;;12.10;93.40;;;9.59;100.00;102031.13;5048026;28;20490;-84
2022/03/27 01:34:44;;;;;;;14.63;7.63;;;12.10;93.70;;;9.57;100.00;102024.09;5046971;28;20045;-85
2022/03/27 01:37:14;;;;;;;15.45;7.97;;;12.10;93.90;;;9.61;100.00;102022.81;5040562;28;20048;-84
2022/03/27 01:39:42;;;;;;;14.77;8.02;;;12.10;94.10;;;9.54;100.00;102017.09;5047124;28;20449;-85
2022/03/27 01:42:10;;;;;;;15.23;8.32;;;12.10;94.00;;;9.58;100.00;102017.66;5037262;28;20049;-85
2022/03/27 01:44:38;;;;;;;17.48;8.60;;;12.10;94.00;;;9.55;100.00;102017.94;5029430;28;20478;-85
2022/03/27 01:47:06;;;;;;;14.32;7.93;;;12.00;94.60;;;9.49;100.00;102030.22;5038516;28;20563;-85
2022/03/27 01:49:33;;;;;;;14.02;8.40;;;12.00;94.70;;;9.52;100.00;102021.81;5049274;28;20044;-85
2022/03/27 01:52:05;;;;;;;13.30;8.85;;;12.00;94.90;;;9.52;100.00;102020.94;5040707;28;20120;-85
2022/03/27 01:54:32;;;;;;;19.08;8.38;;;12.00;94.80;;;9.52;100.00;102024.53;5040168;28;20073;-84
2022/03/27 01:57:02;;;;;;;17.67;8.45;;;12.00;94.80;;;9.51;100.00;102017.34;5029795;28;20099;-85
2022/03/27 01:59:33;;;;;;;16.88;8.55;;;12.00;94.80;;;9.43;100.00;102021.78;5029182;28;20486;-85
2022/03/27 02:02:01;;;;;;;18.95;9.38;;;12.00;94.70;;;9.44;100.00;102021.63;5062483;28;20056;-85
2022/03/27 02:04:28;;;;;;;15.75;9.50;;;12.00;95.00;;;9.44;100.00;102020.78;5049312;28;20471;-85
2022/03/27 02:06:55;;;;;;;15.93;9.25;;;12.00;95.30;;;9.43;100.00;102019.06;5046339;28;20138;-84
2022/03/27 02:09:23;;;;;;;16.70;9.77;;;11.90;95.70;;;9.51;100.00;102021.94;5046418;28;20128;-85
2022/03/27 02:11:50;;;;;;;16.73;10.15;;;11.90;96.10;;;9.36;100.00;102024.19;5037534;28;20053;-84
2022/03/27 02:14:19;;;;;;;15.68;9.80;;;11.90;96.10;;;9.28;100.00;102019.47;5029306;28;20091;-84
2022/03/27 02:16:47;;;;;;;17.02;9.73;;;11.80;95.60;;;9.21;100.00;102034.59;5044128;28;20371;-84
2022/03/27 02:19:14;;;;;;;15.48;9.30;;;11.80;95.60;;;9.11;100.00;102033.72;5048963;28;20122;-85
2022/03/27 02:21:44;;;;;;;17.05;9.07;;;11.80;95.40;;;9.09;100.00;102030.28;5034131;28;20101;-84
2022/03/27 02:24:11;;;;;;;15.35;9.38;;;11.70;95.50;;;9.00;100.00;102030.09;5041665;28;20045;-85
2022/03/27 02:26:45;;;;;;;15.60;9.55;;;11.70;95.30;;;9.04;100.00;102029.81;5040815;28;20164;-85
2022/03/27 02:29:13;;;;;;;16.75;9.48;;;11.60;95.20;;;8.95;100.00;102032.38;5037201;28;20067;-84
2022/03/27 02:31:42;;;;;;;17.05;9.43;;;11.60;95.10;;;8.93;100.00;102033.47;5032659;28;20049;-85
2022/03/27 02:34:10;;;;;;;14.07;9.10;;;11.60;95.40;;;8.79;100.00;102026.56;5051677;28;20045;-84
2022/03/27 02:36:37;;;;;;;18.70;9.90;;;11.50;95.20;;;8.79;100.00;102029.28;5036772;28;20517;-84
2022/03/27 02:39:05;;;;;;;15.85;10.20;;;11.40;95.30;;;8.79;100.00;102026.56;5028885;28;20056;-84
2022/03/27 02:41:33;;;;;;;22.02;10.90;;;11.40;95.50;;;8.72;100.00;102022.66;5038321;28;20049;-84
2022/03/27 02:44:00;;;;;;;16.23;9.77;;;11.30;95.60;;;8.69;100.00;102021.09;5045699;28;20048;-85
2022/03/27 02:46:27;;;;;;;19.42;9.73;;;11.30;95.70;;;8.61;100.00;102021.78;5048217;28;20076;-85
2022/03/27 02:48:56;;;;;;;18.98;9.68;;;11.30;95.00;;;8.53;100.00;102020.72;5048662;28;20060;-84
2022/03/27 02:51:23;;;;;;;16.20;9.55;;;11.20;95.20;;;8.56;100.00;102018.59;5038165;28;20402;-85
2022/03/27 02:53:51;;;;;;;16.67;11.10;;;11.20;95.60;;;8.55;100.00;102025.03;5032033;28;20493;-85
2022/03/27 02:56:18;;;;;;;16.20;10.50;;;11.10;95.70;;;8.59;100.00;102021.03;5048357;28;20120;-85
2022/03/27 02:58:45;;;;;;;14.90;9.43;;;11.20;95.90;;;8.50;100.00;102027.28;5044100;28;20042;-84
2022/03/27 03:01:13;;;;;;;14.93;10.15;;;11.20;95.80;;;8.56;100.00;102021.31;5031802;28;20124;-84
2022/03/27 03:03:42;;;;;;;16.02;10.60;;;11.20;96.40;;;8.51;100.00;102018.16;5037911;28;20037;-84
2022/03/27 03:06:14;;;;;;;20.25;11.20;;;11.10;96.10;;;8.55;100.00;102019.59;5032428;28;20493;-85
2022/03/27 03:08:42;;;;;;;19.33;11.38;;;11.10;96.50;;;8.43;100.00;102023.38;5047894;28;20315;-85
2022/03/27 03:11:13;;;;;;;21.48;12.13;;;11.10;96.30;;;8.51;100.00;102026.28;5047612;28;20124;-85
2022/03/27 03:13:41;;;;;;;19.10;11.85;;;11.10;96.60;;;8.54;100.00;102022.44;5046507;28;20048;-85
2022/03/27 03:16:09;;;;;;;19.50;12.05;;;11.10;97.00;;;8.49;100.00;102013.84;5028519;28;20137;-85
2022/03/27 03:18:36;;;;;;;19.27;12.32;;;11.10;97.00;;;8.50;100.00;102019.13;5035118;28;20044;-85
2022/03/27 03:21:04;;;;;;;19.17;12.65;;;11.10;97.30;;;8.55;100.00;102016.03;5040712;28;20043;-84
2022/03/27 03:23:33;;;;;;;21.13;13.10;;;11.10;97.50;;;8.48;100.00;102017.56;5050523;28;20132;-85
2022/03/27 03:26:01;;;;;;;24.10;14.00;;;11.10;97.10;;;8.50;100.00;102011.00;5050863;28;20141;-84
2022/03/27 03:28:28;;;;;;;22.48;13.63;;;11.10;97.50;;;8.65;100.00;102019.66;5038950;28;20122;-85
2022/03/27 03:30:55;;;;;;;23.75;14.98;;;11.10;97.90;;;8.70;100.00;102011.97;5050740;28;20068;-85
2022/03/27 03:33:22;;;;;;;21.70;13.73;;;11.10;98.00;;;8.70;100.00;102019.22;5051996;28;20045;-84
2022/03/27 03:35:50;;;;;;;21.65;14.93;;;11.20;98.10;;;8.77;100.00;102014.97;5045198;28;20041;-85
2022/03/27 03:38:18;;;;;;;23.88;15.30;;;11.10;98.50;;;8.81;100.00;102019.13;5034192;28;20433;-85
2022/03/27 03:40:46;;;;;;;23.65;15.60;;;11.20;98.60;;;8.82;100.00;102020.88;5046739;28;20552;-84
2022/03/27 03:43:14;;;;;;;30.98;18.88;;;11.20;98.70;;;8.82;100.00;102012.72;5051501;28;20128;-85
2022/03/27 03:45:41;;;;;;;30.80;19.10;;;11.20;98.90;;;8.90;100.00;102012.91;5049806;28;20056;-84
2022/03/27 03:48:10;;;;;;;30.85;19.10;;;11.20;98.80;;;8.97;100.00;102013.22;5051729;28;20041;-84
2022/03/27 03:50:37;;;;;;;29.20;18.13;;;11.30;98.70;;;8.96;100.00;102009.63;5035523;28;20519;-84
2022/03/27 03:53:05;;;;;;;40.35;23.48;;;11.30;99.10;;;8.98;100.00;102017.66;5041679;28;20045;-85
2022/03/27 03:55:34;;;;;;;38.45;23.75;;;11.30;99.40;;;8.97;100.00;102019.50;5037644;28;20123;-85
2022/03/27 03:58:03;;;;;;;44.88;26.40;;;11.30;99.50;;;8.97;100.00;102013.22;5031350;28;20085;-84
2022/03/27 04:00:31;;;;;;;41.63;25.27;;;11.30;99.60;;;8.98;100.00;102014.94;5041754;28;20120;-84
2022/03/27 04:02:59;;;;;;;57.67;29.45;;;11.30;99.60;;;9.03;100.00;102009.09;5051568;28;20052;-85
2022/03/27 04:05:26;;;;;;;55.28;29.13;;;11.30;99.90;;;9.02;100.00;102018.22;5049448;28;20661;-85
2022/03/27 04:07:53;;;;;;;54.58;28.52;;;11.30;99.90;;;9.04;100.00;102013.53;5047580;28;20072;-85
2022/03/27 04:10:20;;;;;;;53.33;27.88;;;11.30;99.90;;;9.06;100.00;102008.81;5041013;28;20124;-85
2022/03/27 04:12:48;;;;;;;52.22;28.48;;;11.30;99.70;;;8.99;100.00;102017.50;5051329;28;20045;-85
2022/03/27 04:15:16;;;;;;;51.70;27.98;;;11.40;99.70;;;8.92;100.00;102010.91;5050911;28;20037;-84
2022/03/27 04:17:44;;;;;;;52.15;27.15;;;11.40;99.70;;;8.94;100.00;102008.91;5050452;28;20071;-84
2022/03/27 04:20:12;;;;;;;47.85;28.13;;;11.30;99.90;;;8.97;100.00;102007.78;5049781;28;20029;-85
2022/03/27 04:22:40;;;;;;;47.33;27.63;;;11.40;99.90;;;9.02;100.00;102008.22;5051225;28;20045;-84
2022/03/27 04:25:09;;;;;;;46.38;27.33;;;11.40;99.90;;;9.03;100.00;102009.09;5037374;28;20193;-85
2022/03/27 04:27:37;;;;;;;45.13;26.23;;;11.30;99.90;;;9.03;100.00;102011.81;5049916;28;20055;-84
2022/03/27 04:30:08;;;;;;;49.10;26.55;;;11.40;99.90;;;9.00;100.00;102013.81;5044333;28;20128;-85
2022/03/27 04:32:37;;;;;;;;;;;11.40;99.90;;;9.04;100.00;102013.53;5043455;28;20033;-85
2022/03/27 04:35:07;;;;;;;49.35;26.13;;;11.40;99.90;;;9.00;100.00;102013.81;5046515;28;20334;-84
2022/03/27 04:37:39;;;;;;;45.45;24.90;;;11.40;99.90;;;9.08;100.00;102010.41;5030836;28;20041;-85
2022/03/27 04:40:09;;;;;;;49.90;25.83;;;11.40;99.90;;;9.09;100.00;102016.69;5032733;28;20038;-84
2022/03/27 04:42:36;;;;;;;49.22;26.27;;;11.50;99.90;;;9.10;100.00;102019.28;5047198;28;20072;-84
2022/03/27 04:45:03;;;;;;;47.05;26.33;;;11.50;99.90;;;9.15;100.00;102021.56;5043676;28;20041;-84
2022/03/27 04:47:31;;;;;;;51.78;26.73;;;11.50;99.90;;;9.11;100.00;102026.41;5049433;28;20047;-85
2022/03/27 04:49:59;;;;;;;46.75;26.38;;;11.50;99.90;;;9.09;100.00;102027.56;5044768;28;20825;-84
2022/03/27 04:52:27;;;;;;;64.35;29.35;;;11.50;99.90;;;9.12;100.00;102019.13;5040337;28;20072;-85
2022/03/27 04:54:54;;;;;;;53.00;27.50;;;11.50;99.90;;;9.17;100.00;102025.00;5041624;28;20073;-84
2022/03/27 04:57:22;;;;;;;49.30;27.15;;;11.50;99.90;;;9.12;100.00;102027.25;5030562;28;20132;-84
2022/03/27 04:59:50;;;;;;;54.05;27.95;;;11.50;99.90;;;9.14;100.00;102028.00;5029692;28;20126;-84
2022/03/27 05:02:17;;;;;;;49.63;26.60;;;11.50;99.90;;;9.20;100.00;102038.31;5049470;28;20051;-85
2022/03/27 05:04:45;;;;;;;55.00;26.52;;;11.50;99.90;;;9.21;100.00;102031.88;5037144;28;20490;-84
2022/03/27 05:07:13;;;;;;;51.10;27.33;;;11.50;99.90;;;9.23;100.00;102035.31;5030344;28;20116;-84
2022/03/27 05:09:40;;;;;;;51.47;27.35;;;11.50;99.90;;;9.24;100.00;102037.03;5041761;28;20033;-84
2022/03/27 05:12:10;;;;;;;44.92;25.88;;;11.50;99.90;;;9.25;100.00;102041.47;5041972;28;20091;-84
2022/03/27 05:14:37;;;;;;;44.92;26.95;;;11.50;99.90;;;9.23;100.00;102035.31;5048544;28;20037;-84
2022/03/27 05:17:05;;;;;;;44.25;26.20;;;11.50;99.90;;;9.30;100.00;102033.75;5049993;28;20049;-84
2022/03/27 05:19:33;;;;;;;50.63;28.80;;;11.50;99.90;;;9.31;100.00;102032.78;5033896;28;20128;-85
2022/03/27 05:22:00;;;;;;;49.88;28.70;;;11.50;99.90;;;9.30;100.00;102036.47;5029464;28;20432;-84
2022/03/27 05:24:28;;;;;;;48.83;27.88;;;11.50;99.90;;;9.26;100.00;102040.47;5035309;28;20072;-85
2022/03/27 05:26:59;;;;;;;48.42;27.77;;;11.60;99.90;;;9.27;100.00;102042.22;5033966;28;20048;-84
2022/03/27 05:29:26;;;;;;;41.33;26.30;;;11.60;99.90;;;9.28;100.00;102043.06;5042530;28;20045;-84
2022/03/27 05:31:54;;;;;;;45.83;28.52;;;11.60;99.90;;;9.29;100.00;102051.06;5048498;28;20080;-84
2022/03/27 05:34:21;;;;;;;45.78;28.58;;;11.60;99.90;;;9.31;100.00;102038.22;5037217;28;20033;-84
2022/03/27 05:36:48;;;;;;;42.80;27.10;;;11.60;99.90;;;9.30;100.00;102044.63;5029966;28;20136;-84
2022/03/27 05:39:15;;;;;;;39.13;27.15;;;11.60;99.90;;;9.30;100.00;102035.63;5040492;28;20416;-84
2022/03/27 05:41:44;;;;;;;41.38;26.70;;;11.60;99.90;;;9.24;100.00;102042.47;5047703;28;20041;-85
2022/03/27 05:44:11;;;;;;;41.83;27.50;;;11.60;99.90;;;9.26;100.00;102040.47;5045356;28;20060;-84
2022/03/27 05:46:39;;;;;;;45.83;27.10;;;11.60;99.90;;;9.25;100.00;102041.47;5042392;28;20633;-84
2022/03/27 05:49:06;;;;;;;43.45;29.05;;;11.60;99.90;;;9.22;100.00;102044.47;5048788;28;20127;-84
2022/03/27 05:51:33;;;;;;;46.92;29.95;;;11.60;99.90;;;9.16;100.00;102042.31;5044582;28;20144;-83
2022/03/27 05:54:01;;;;;;;44.53;28.65;;;11.50;99.90;;;9.22;100.00;102049.91;5029646;28;20588;-84
2022/03/27 05:56:28;;;;;;;44.88;29.08;;;11.50;99.90;;;9.22;100.00;102043.63;5032004;28;20119;-84
2022/03/27 05:58:56;;;;;;;44.83;28.63;;;11.50;99.90;;;9.23;100.00;102048.03;5048873;28;20053;-83
2022/03/27 06:01:26;;;;;;;42.58;28.25;;;11.50;99.90;;;9.18;100.00;102043.88;5045072;28;20045;-80
2022/03/27 06:03:53;;;;;;;46.60;29.77;;;11.60;99.90;;;9.21;100.00;102045.44;5046266;28;20076;-84
2022/03/27 06:06:20;;;;;;;44.47;29.30;;;11.50;99.90;;;9.26;100.00;102045.06;5048697;28;20494;-82
2022/03/27 06:08:48;;;;;;;45.28;29.17;;;11.60;99.90;;;9.23;100.00;102050.75;5048827;28;20043;-83
2022/03/27 06:11:15;;;;;;;45.78;29.75;;;11.50;99.90;;;9.28;100.00;102057.50;5047731;28;20041;-84
2022/03/27 06:13:42;;;;;;;53.67;31.90;;;11.60;99.90;;;9.31;100.00;102059.94;5048541;28;20040;-82
2022/03/27 06:16:13;;;;;;;45.58;29.25;;;11.60;99.90;;;9.24;100.00;102064.19;5048750;28;20045;-83
2022/03/27 06:18:40;;;;;;;45.80;28.80;;;11.60;99.90;;;9.23;100.00;102059.75;5036839;28;20064;-82
2022/03/27 06:21:08;;;;;;;41.90;28.75;;;11.50;99.90;;;9.28;100.00;102068.34;5033293;28;20311;-83
2022/03/27 06:23:36;;;;;;;44.17;29.88;;;11.50;99.90;;;9.25;100.00;102065.91;5046253;28;20071;-83
2022/03/27 06:26:03;;;;;;;52.45;29.85;;;11.50;99.90;;;9.23;100.00;102062.47;5048755;28;20044;-84
2022/03/27 06:28:31;;;;;;;44.42;28.23;;;11.50;99.90;;;9.25;100.00;102065.06;5048326;28;20127;-82
2022/03/27 06:30:58;;;;;;;49.05;30.40;;;11.50;99.90;;;9.22;100.00;102066.19;5048049;28;20047;-83
2022/03/27 06:33:26;;;;;;;44.25;29.15;;;11.50;99.90;;;9.18;100.00;102070.19;5033585;28;20056;-83
2022/03/27 06:35:54;;;;;;;46.20;30.00;;;11.50;99.90;;;9.19;100.00;102074.63;5037707;28;20068;-83
2022/03/27 06:38:21;;;;;;;45.40;29.88;;;11.40;99.90;;;9.16;100.00;102072.19;5044985;28;20082;-83
2022/03/27 06:40:48;;;;;;;48.08;30.23;;;11.40;99.90;;;9.19;100.00;102082.75;5048832;28;20041;-82
2022/03/27 06:43:16;;;;;;;46.47;29.83;;;11.40;99.90;;;9.18;100.00;102081.06;5034726;28;20081;-81
2022/03/27 06:45:43;;;;;;;49.38;29.95;;;11.50;99.90;;;9.19;100.00;102077.31;5045488;28;20048;-81
2022/03/27 06:48:10;;;;;;;49.10;29.63;;;11.50;99.90;;;9.17;100.00;102079.31;5037263;28;20059;-82
2022/03/27 06:50:39;;;;;;;48.72;30.17;;;11.50;99.90;;;9.15;100.00;102082.16;5038917;28;20072;-83
2022/03/27 06:53:07;;;;;;;47.78;29.35;;;11.50;99.90;;;9.21;100.00;102083.47;5045326;28;20127;-83
2022/03/27 06:55:37;;;;;;;46.30;30.55;;;11.50;99.90;;;9.25;100.00;102076.78;5049945;28;20464;-83
2022/03/27 06:58:04;;;;;;;45.70;28.50;;;11.50;99.90;;;9.20;100.00;102076.34;5040623;28;20520;-83
2022/03/27 07:03:16;;;;;;;47.70;29.38;;;11.50;99.90;;;9.24;100.00;102075.06;5051387;28;20048;-82
2022/03/27 07:05:45;;;;;;;49.83;31.17;;;11.50;99.90;;;9.27;100.00;102080.25;5053302;28;20045;-82
2022/03/27 07:08:14;;;;;;;46.25;30.10;;;11.50;99.90;;;9.22;100.00;102077.06;5035306;28;20462;-83
2022/03/27 07:10:44;;;;;;;46.15;29.88;;;11.50;99.90;;;9.24;100.00;102076.94;5045570;28;20494;-82
2022/03/27 07:13:12;;;;;;;47.95;29.38;;;11.50;99.90;;;9.25;100.00;102073.19;5047100;28;20120;-82
2022/03/27 07:15:41;;;;;;;44.45;29.38;;;11.50;99.90;;;9.28;100.00;102071.06;5032178;28;20040;-82
2022/03/27 07:18:10;;;;;;;51.83;30.92;;;11.50;99.90;;;9.35;100.00;102071.41;5044857;28;20052;-82
2022/03/27 07:20:40;;;;;;;46.20;28.95;;;11.50;99.90;;;9.39;100.00;102078.28;5034552;28;20160;-83
2022/03/27 07:23:11;;;;;;;47.65;30.17;;;11.60;99.90;;;9.37;100.00;102072.97;5043933;28;20068;-85
2022/03/27 07:25:41;;;;;;;47.22;28.80;;;11.60;99.90;;;9.50;100.00;102077.28;5050526;28;20576;-83
2022/03/27 07:28:10;;;;;;;49.45;29.52;;;11.60;99.90;;;9.52;100.00;102078.00;5046511;28;20390;-82
2022/03/27 07:30:40;;;;;;;44.10;27.88;;;11.60;99.90;;;9.57;100.00;102076.59;5046155;28;20041;-83
2022/03/27 07:33:08;;;;;;;48.75;29.73;;;11.70;99.90;;;9.59;100.00;102073.72;5035295;28;20042;-82
2022/03/27 07:35:35;;;;;;;48.97;30.60;;;11.70;99.90;;;9.58;100.00;102074.75;5049025;28;20045;-83
2022/03/27 07:38:04;;;;;;;43.55;28.83;;;11.70;99.90;;;9.54;100.00;102073.31;5042425;28;20047;-83
2022/03/27 07:40:34;;;;;;;46.35;30.13;;;11.70;99.90;;;9.57;100.00;102083.88;5031575;28;20049;-83
2022/03/27 07:43:02;;;;;;;45.00;28.60;;;11.70;99.90;;;9.54;100.00;102070.59;5043121;28;20067;-83
2022/03/27 07:45:32;;;;;;;46.40;29.35;;;11.70;99.90;;;9.59;100.00;102068.28;5042671;28;20064;-79
2022/03/27 07:48:00;;;;;;;43.65;28.63;;;11.70;99.90;;;9.66;100.00;102074.91;5050378;28;20126;-82
2022/03/27 07:50:30;;;;;;;46.42;29.00;;;11.70;99.90;;;9.73;100.00;102076.06;5043073;28;20453;-82
2022/03/27 07:52:58;;;;;;;47.00;30.00;;;11.70;99.90;;;9.71;100.00;102078.06;5038916;28;20045;-83
2022/03/27 07:55:25;;;;;;;41.10;27.83;;;11.70;99.90;;;9.78;100.00;102072.91;5051620;28;20287;-83
2022/03/27 07:57:53;;;;;;;49.53;29.77;;;11.80;99.90;;;9.85;100.00;102068.63;5040319;28;20049;-84
2022/03/27 08:00:21;;;;;;;46.45;28.50;;;11.80;99.90;;;9.92;100.00;102074.38;5031666;28;20502;-83
2022/03/27 08:02:48;;;;;;;43.92;28.67;;;11.90;99.90;;;9.97;100.00;102078.34;5041008;28;20401;-90
2022/03/27 08:11:10;;;;;;;44.53;29.27;;;12.00;99.90;;;10.24;100.00;102073.22;5025133;28;20053;-81
2022/03/27 08:13:39;;;;;;;44.53;27.45;;;12.00;99.90;;;10.35;100.00;102070.38;5030567;28;20049;-85
2022/03/27 08:16:06;;;;;;;47.83;30.40;;;12.10;99.80;;;10.36;100.00;102066.66;5029420;28;20053;-89
2022/03/27 08:18:34;;;;;;;44.88;29.80;;;12.10;99.40;;;10.33;100.00;102078.69;5031745;28;20080;-84
2022/03/27 08:21:01;;;;;;;44.60;29.45;;;12.20;99.10;;;10.34;100.00;102074.97;5031070;28;20041;-95
2022/03/27 08:23:29;;;;;;;44.10;29.15;;;12.20;99.20;;;10.37;100.00;102065.63;5057297;28;20056;-93
2022/03/27 08:28:47;;;;;;;46.00;28.95;;;12.20;98.40;;;10.34;100.00;102079.56;5008962;28;20132;-85
2022/03/27 08:31:15;;;;;;;49.13;29.85;;;12.30;98.90;;;10.40;100.00;102069.97;5067119;28;20463;-85
2022/03/27 08:33:42;;;;;;;48.65;29.42;;;12.30;99.00;;;10.47;100.00;102073.78;5052664;28;20052;-89
2022/03/27 08:36:12;;;;;;;48.15;30.63;;;12.30;98.80;;;10.54;100.00;102081.22;5050993;28;20120;-83
2022/03/27 08:38:39;;;;;;;46.50;29.55;;;12.40;98.70;;;10.52;100.00;102077.78;5047210;28;20040;-85
2022/03/27 08:41:06;;;;;;;49.63;30.38;;;12.40;98.40;;;10.61;100.00;102081.50;5041759;28;20039;-83
2022/03/27 08:43:34;;;;;;;48.40;29.80;;;12.40;98.50;;;10.68;100.00;102084.50;5042873;28;20107;-83
2022/03/27 08:46:04;;;;;;;45.97;29.30;;;12.40;99.10;;;10.66;100.00;102081.06;5040376;28;20064;-84
2022/03/27 08:48:36;;;;;;;46.80;28.90;;;12.40;98.20;;;10.68;100.00;102081.78;5042109;28;20150;-85
2022/03/27 08:51:11;;;;;;;46.22;29.38;;;12.50;98.00;;;10.68;100.00;102077.22;5049782;28;20041;-84
2022/03/27 08:53:48;;;;;;;46.40;29.35;;;12.50;97.90;;;10.71;100.00;102082.34;5046756;28;20045;-85
2022/03/27 08:56:18;;;;;;;46.42;28.10;;;12.50;97.70;;;10.72;99.96;102084.06;5037349;28;20041;-84
2022/03/27 08:58:47;;;;;;;48.80;30.10;;;12.50;97.60;;;10.74;99.85;102075.75;5047703;28;20045;-85
2022/03/27 09:01:17;;;;;;;47.72;29.42;;;12.50;97.50;;;10.75;100.00;102074.75;5048862;28;20056;-84
2022/03/27 09:03:44;;;;;;;42.72;27.80;;;12.60;97.60;;;10.82;100.00;102075.88;5047760;28;20048;-84
2022/03/27 09:06:12;;;;;;;47.45;30.65;;;12.60;97.70;;;10.85;99.44;102083.75;5050109;28;20041;-84
2022/03/27 09:08:39;;;;;;;50.85;29.95;;;12.70;97.70;;;10.83;99.59;102077.56;5050168;28;20064;-84
2022/03/27 09:11:08;;;;;;;43.60;28.02;;;12.70;97.40;;;10.89;99.99;102079.72;5048754;28;20041;-84
2022/03/27 09:13:37;;;;;;;45.70;29.25;;;12.70;97.50;;;10.93;98.94;102083.03;5045768;28;20045;-84
2022/03/27 09:16:07;;;;;;;43.83;27.88;;;12.60;97.10;;;10.95;99.14;102073.69;5046581;28;20045;-84
2022/03/27 09:18:48;;;;;;;39.55;26.80;;;12.70;97.00;;;11.10;98.94;102075.91;5048472;28;20471;-84
2022/03/27 09:21:16;;;;;;;49.20;28.17;;;12.80;97.10;;;11.13;97.86;102078.34;5048954;28;20053;-85
2022/03/27 09:23:43;;;;;;;55.70;29.60;;;12.80;96.90;;;11.09;98.15;102079.66;5049172;28;20734;-84
2022/03/27 09:26:17;;;;;;;47.70;28.00;;;12.80;96.60;;;11.10;96.97;102084.09;5049857;28;20124;-85
2022/03/27 09:28:46;;;;;;;50.92;30.02;;;12.80;96.10;;;11.10;96.96;102078.63;5049924;28;20590;-84
2022/03/27 09:31:27;;;;;;;52.88;29.63;;;12.90;96.30;;;11.16;96.91;102080.78;5045171;28;20146;-84
2022/03/27 09:34:00;;;;;;;59.45;29.27;;;12.90;96.20;;;11.26;96.61;102075.28;5045965;28;20033;-84
2022/03/27 09:36:32;;;;;;;48.50;29.42;;;12.90;96.20;;;11.31;96.16;102071.09;5049470;28;20045;-84
2022/03/27 09:39:12;;;;;;;51.92;29.52;;;13.00;95.90;;;11.39;95.23;102081.25;5049368;28;20045;-85
2022/03/27 09:41:44;;;;;;;48.70;28.25;;;13.00;95.50;;;11.45;95.21;102074.31;5048523;28;20037;-84
2022/03/27 09:44:15;;;;;;;48.92;28.58;;;13.00;95.70;;;11.43;94.51;102076.34;5049653;28;20041;-85
2022/03/27 09:46:57;;;;;;;;;;;13.00;95.60;;;11.45;95.15;102069.72;5047599;28;20824;-85
2022/03/27 09:49:43;;;;;;;50.05;27.05;;;13.00;95.40;;;11.58;96.22;102074.81;5040267;28;19920;-84
2022/03/27 09:52:13;;;;;;;48.50;27.42;;;13.10;96.10;;;11.65;95.71;102070.47;5049229;28;20501;-85
2022/03/27 09:54:55;;;;;;;51.45;28.55;;;13.10;96.10;;;11.60;94.61;102074.69;5048588;28;20041;-85
2022/03/27 09:57:26;;;;;;;50.60;28.52;;;13.20;95.30;;;11.68;94.21;102063.84;5049344;28;20083;-85
2022/03/27 09:59:55;;;;;;;50.15;28.08;;;13.20;95.20;;;11.76;94.41;102074.00;5048627;28;20053;-85
2022/03/27 10:02:28;;;;;;;46.25;25.67;;;13.20;95.40;;;11.85;95.08;102064.88;5048916;28;20049;-84
2022/03/27 10:05:04;;;;;;;51.45;26.58;;;13.30;96.00;;;11.83;93.79;102067.75;5046949;28;20041;-84
2022/03/27 10:07:40;;;;;;;45.70;25.15;;;13.40;95.10;;;11.79;94.06;102070.97;5038915;28;20073;-84
2022/03/27 10:10:11;;;;;;;46.70;25.40;;;13.40;95.00;;;11.84;93.60;102068.59;5047380;28;20840;-85
2022/03/27 10:12:43;;;;;;;44.20;24.40;;;13.40;94.80;;;11.87;93.97;102065.59;5048442;28;20037;-84
2022/03/27 10:15:14;;;;;;;50.17;26.02;;;13.50;95.00;;;11.85;94.11;102064.88;5049258;28;20075;-84
2022/03/27 10:17:46;;;;;;;51.63;26.90;;;13.40;94.80;;;11.93;93.82;102056.81;5049246;28;20076;-85
2022/03/27 10:20:17;;;;;;;50.85;26.55;;;13.50;95.00;;;12.03;93.47;102057.59;5047016;28;20143;-84